sensor_id;sensor_type;location;lat;lon;timestamp;pressure;altitude;pressure_sealevel;temperature;humidity
4167;BME280;2097;51.104;7.150;2022-08-02T00:01:58;99178.75;;;15.20;95.76
4167;BME280;2097;51.104;7.150;2022-08-02T00:04:25;99169.25;;;15.19;96.46
4167;BME280;2097;51.104;7.150;2022-08-02T00:06:52;99183.03;;;15.21;96.33
4167;BME280;2097;51.104;7.150;2022-08-02T00:09:20;99187.53;;;15.19;96.63
4167;BME280;2097;51.104;7.150;2022-08-02T00:11:47;99176.34;;;15.17;96.75
4167;BME280;2097;51.104;7.150;2022-08-02T00:14:14;99184.28;;;15.16;97.12
4167;BME280;2097;51.104;7.150;2022-08-02T00:16:41;99178.13;;;15.17;97.14
4167;BME280;2097;51.104;7.150;2022-08-02T00:19:07;99154.81;;;15.01;97.44
4167;BME280;2097;51.104;7.150;2022-08-02T00:21:37;99173.00;;;15.15;97.33
4167;BME280;2097;51.104;7.150;2022-08-02T00:24:04;99183.25;;;15.18;97.68
4167;BME280;2097;51.104;7.150;2022-08-02T00:26:33;99184.06;;;15.19;97.67
4167;BME280;2097;51.104;7.150;2022-08-02T00:28:59;99183.13;;;15.20;97.60
4167;BME280;2097;51.104;7.150;2022-08-02T00:31:26;99182.31;;;15.19;97.79
4167;BME280;2097;51.104;7.150;2022-08-02T00:33:53;99183.13;;;15.20;97.88
4167;BME280;2097;51.104;7.150;2022-08-02T00:36:20;99049.78;;;14.36;97.81
4167;BME280;2097;51.104;7.150;2022-08-02T00:38:47;99189.22;;;15.20;97.94
4167;BME280;2097;51.104;7.150;2022-08-02T00:41:18;99178.03;;;15.18;98.18
4167;BME280;2097;51.104;7.150;2022-08-02T00:43:49;99178.25;;;15.15;98.28
4167;BME280;2097;51.104;7.150;2022-08-02T00:46:17;99173.00;;;15.15;98.29
4167;BME280;2097;51.104;7.150;2022-08-02T00:48:45;98976.34;;;13.90;98.35
4167;BME280;2097;51.104;7.150;2022-08-02T00:51:12;99167.06;;;15.13;98.47
4167;BME280;2097;51.104;7.150;2022-08-02T00:53:39;99130.38;;;14.90;98.74
4167;BME280;2097;51.104;7.150;2022-08-02T00:56:06;99155.88;;;15.11;98.77
4167;BME280;2097;51.104;7.150;2022-08-02T00:58:33;99158.47;;;15.11;98.97
4167;BME280;2097;51.104;7.150;2022-08-02T01:01:01;99154.31;;;15.09;99.39
4167;BME280;2097;51.104;7.150;2022-08-02T01:03:28;99162.25;;;15.07;99.14
4167;BME280;2097;51.104;7.150;2022-08-02T01:05:55;99132.38;;;14.86;99.66
4167;BME280;2097;51.104;7.150;2022-08-02T01:08:22;99165.81;;;15.06;99.86
4167;BME280;2097;51.104;7.150;2022-08-02T01:10:49;99169.16;;;15.08;99.99
4167;BME280;2097;51.104;7.150;2022-08-02T01:13:15;99168.22;;;15.09;100.00
4167;BME280;2097;51.104;7.150;2022-08-02T01:15:47;99126.94;;;14.77;100.00
4167;BME280;2097;51.104;7.150;2022-08-02T01:18:23;99162.25;;;15.07;100.00
4167;BME280;2097;51.104;7.150;2022-08-02T01:24:03;99154.94;;;15.00;100.00
4167;BME280;2097;51.104;7.150;2022-08-02T01:26:42;99155.25;;;14.95;100.00
4167;BME280;2097;51.104;7.150;2022-08-02T01:29:18;99163.22;;;14.94;100.00
4167;BME280;2097;51.104;7.150;2022-08-02T01:31:49;99159.97;;;14.90;100.00
4167;BME280;2097;51.104;7.150;2022-08-02T01:34:23;99153.28;;;14.86;100.00
4167;BME280;2097;51.104;7.150;2022-08-02T01:36:57;99152.66;;;14.83;100.00
4167;BME280;2097;51.104;7.150;2022-08-02T01:39:28;99144.09;;;14.81;100.00
4167;BME280;2097;51.104;7.150;2022-08-02T01:41:56;99145.13;;;14.79;100.00
4167;BME280;2097;51.104;7.150;2022-08-02T01:44:27;99142.53;;;14.79;100.00
4167;BME280;2097;51.104;7.150;2022-08-02T01:47:00;99138.03;;;14.81;100.00
4167;BME280;2097;51.104;7.150;2022-08-02T01:49:29;99135.31;;;14.82;100.00
4167;BME280;2097;51.104;7.150;2022-08-02T01:51:59;99138.84;;;14.81;100.00
4167;BME280;2097;51.104;7.150;2022-08-02T01:54:44;99144.81;;;14.83;100.00
4167;BME280;2097;51.104;7.150;2022-08-02T01:57:13;99151.63;;;14.85;100.00
4167;BME280;2097;51.104;7.150;2022-08-02T01:59:43;99147.22;;;14.86;100.00
4167;BME280;2097;51.104;7.150;2022-08-02T02:02:13;99150.88;;;14.83;100.00
4167;BME280;2097;51.104;7.150;2022-08-02T02:04:41;99146.59;;;14.82;100.00
4167;BME280;2097;51.104;7.150;2022-08-02T02:07:11;99148.28;;;14.83;100.00
4167;BME280;2097;51.104;7.150;2022-08-02T02:09:40;99140.44;;;14.83;100.00
4167;BME280;2097;51.104;7.150;2022-08-02T02:12:10;99137.81;;;14.83;100.00
4167;BME280;2097;51.104;7.150;2022-08-02T02:14:43;99137.09;;;14.82;100.00
4167;BME280;2097;51.104;7.150;2022-08-02T02:17:10;99114.19;;;14.73;100.00
4167;BME280;2097;51.104;7.150;2022-08-02T02:19:39;99126.72;;;14.80;100.00
4167;BME280;2097;51.104;7.150;2022-08-02T02:22:07;99132.81;;;14.81;100.00
4167;BME280;2097;51.104;7.150;2022-08-02T02:24:34;99126.63;;;14.82;100.00
4167;BME280;2097;51.104;7.150;2022-08-02T02:27:02;99131.22;;;14.78;100.00
4167;BME280;2097;51.104;7.150;2022-08-02T02:29:31;99131.44;;;14.75;100.00
4167;BME280;2097;51.104;7.150;2022-08-02T02:32:03;99128.22;;;14.72;100.00
4167;BME280;2097;51.104;7.150;2022-08-02T02:34:33;99128.41;;;14.69;100.00
4167;BME280;2097;51.104;7.150;2022-08-02T02:37:04;99131.03;;;14.69;100.00
4167;BME280;2097;51.104;7.150;2022-08-02T02:39:32;99131.16;;;14.67;100.00
4167;BME280;2097;51.104;7.150;2022-08-02T02:42:01;99126.75;;;14.68;100.00
4167;BME280;2097;51.104;7.150;2022-08-02T02:44:30;99123.19;;;14.69;100.00
4167;BME280;2097;51.104;7.150;2022-08-02T02:46:58;99122.38;;;14.68;100.00
4167;BME280;2097;51.104;7.150;2022-08-02T02:49:30;99125.91;;;14.67;100.00
4167;BME280;2097;51.104;7.150;2022-08-02T02:51:58;99117.34;;;14.65;100.00
4167;BME280;2097;51.104;7.150;2022-08-02T02:54:26;99125.41;;;14.62;100.00
4167;BME280;2097;51.104;7.150;2022-08-02T02:56:54;99122.88;;;14.61;100.00
4167;BME280;2097;51.104;7.150;2022-08-02T02:59:21;99128.31;;;14.58;100.00
4167;BME280;2097;51.104;7.150;2022-08-02T03:01:48;99120.72;;;14.55;100.00
4167;BME280;2097;51.104;7.150;2022-08-02T03:04:15;99116.50;;;14.52;100.00
4167;BME280;2097;51.104;7.150;2022-08-02T03:06:43;99116.72;;;14.49;100.00
4167;BME280;2097;51.104;7.150;2022-08-02T03:09:11;99115.16;;;14.47;100.00
4167;BME280;2097;51.104;7.150;2022-08-02T03:11:39;99117.88;;;14.45;100.00
4167;BME280;2097;51.104;7.150;2022-08-02T03:14:09;99111.91;;;14.43;100.00
4167;BME280;2097;51.104;7.150;2022-08-02T03:16:44;99118.91;;;14.43;100.00
4167;BME280;2097;51.104;7.150;2022-08-02T03:19:11;99118.19;;;14.41;100.00
4167;BME280;2097;51.104;7.150;2022-08-02T03:21:38;99118.19;;;14.41;100.00
4167;BME280;2097;51.104;7.150;2022-08-02T03:24:08;99108.69;;;14.40;100.00
4167;BME280;2097;51.104;7.150;2022-08-02T03:26:35;99074.81;;;14.13;100.00
4167;BME280;2097;51.104;7.150;2022-08-02T03:29:03;99049.75;;;13.98;100.00
4167;BME280;2097;51.104;7.150;2022-08-02T03:31:29;99118.59;;;14.35;100.00
4167;BME280;2097;51.104;7.150;2022-08-02T03:33:58;99080.41;;;14.07;100.00
4167;BME280;2097;51.104;7.150;2022-08-02T03:36:27;98925.38;;;13.23;100.00
4167;BME280;2097;51.104;7.150;2022-08-02T03:38:54;99108.56;;;14.29;100.00
4167;BME280;2097;51.104;7.150;2022-08-02T03:41:24;99040.66;;;13.91;100.00
4167;BME280;2097;51.104;7.150;2022-08-02T03:43:51;99106.59;;;14.32;100.00
4167;BME280;2097;51.104;7.150;2022-08-02T03:46:19;99104.81;;;14.33;100.00
4167;BME280;2097;51.104;7.150;2022-08-02T03:48:50;99097.09;;;14.31;100.00
4167;BME280;2097;51.104;7.150;2022-08-02T03:51:17;99066.34;;;14.10;100.00
4167;BME280;2097;51.104;7.150;2022-08-02T03:53:44;99108.06;;;14.36;100.00
4167;BME280;2097;51.104;7.150;2022-08-02T03:56:12;99104.59;;;14.36;100.00
4167;BME280;2097;51.104;7.150;2022-08-02T03:58:40;99102.00;;;14.36;100.00
4167;BME280;2097;51.104;7.150;2022-08-02T04:01:07;99099.38;;;14.36;100.00
4167;BME280;2097;51.104;7.150;2022-08-02T04:03:33;99098.44;;;14.37;100.00
4167;BME280;2097;51.104;7.150;2022-08-02T04:06:00;99095.84;;;14.37;100.00
4167;BME280;2097;51.104;7.150;2022-08-02T04:08:27;98994.34;;;13.56;100.00
4167;BME280;2097;51.104;7.150;2022-08-02T04:10:54;99109.63;;;14.39;100.00
4167;BME280;2097;51.104;7.150;2022-08-02T04:13:39;99113.16;;;14.38;100.00
4167;BME280;2097;51.104;7.150;2022-08-02T04:16:09;99110.44;;;14.39;100.00
4167;BME280;2097;51.104;7.150;2022-08-02T04:18:44;99112.09;;;14.40;100.00
4167;BME280;2097;51.104;7.150;2022-08-02T04:21:14;99115.47;;;14.42;100.00
4167;BME280;2097;51.104;7.150;2022-08-02T04:23:44;99112.75;;;14.44;100.00
4167;BME280;2097;51.104;7.150;2022-08-02T04:26:12;99125.50;;;14.48;100.00
4167;BME280;2097;51.104;7.150;2022-08-02T04:28:41;99041.38;;;14.06;100.00
4167;BME280;2097;51.104;7.150;2022-08-02T04:31:09;99076.63;;;14.25;100.00
4167;BME280;2097;51.104;7.150;2022-08-02T04:33:36;98972.69;;;13.68;100.00
4167;BME280;2097;51.104;7.150;2022-08-02T04:36:05;99102.53;;;14.41;100.00
4167;BME280;2097;51.104;7.150;2022-08-02T04:38:32;99125.28;;;14.64;100.00
4167;BME280;2097;51.104;7.150;2022-08-02T04:40:59;99120.78;;;14.66;100.00
4167;BME280;2097;51.104;7.150;2022-08-02T04:43:25;99123.31;;;14.67;100.00
4167;BME280;2097;51.104;7.150;2022-08-02T04:45:54;99110.25;;;14.55;100.00
4167;BME280;2097;51.104;7.150;2022-08-02T04:48:22;99128.31;;;14.70;100.00
4167;BME280;2097;51.104;7.150;2022-08-02T04:50:49;99128.41;;;14.69;100.00
4167;BME280;2097;51.104;7.150;2022-08-02T04:53:16;99050.91;;;14.19;100.00
4167;BME280;2097;51.104;7.150;2022-08-02T04:55:43;99050.91;;;14.32;100.00
4167;BME280;2097;51.104;7.150;2022-08-02T04:58:10;99130.28;;;14.79;100.00
4167;BME280;2097;51.104;7.150;2022-08-02T05:00:37;99040.88;;;14.26;100.00
4167;BME280;2097;51.104;7.150;2022-08-02T05:03:05;99123.09;;;14.82;100.00
4167;BME280;2097;51.104;7.150;2022-08-02T05:05:32;99124.75;;;14.83;100.00
4167;BME280;2097;51.104;7.150;2022-08-02T05:07:59;99135.09;;;14.85;100.00
4167;BME280;2097;51.104;7.150;2022-08-02T05:10:26;98996.81;;;14.09;100.00
4167;BME280;2097;51.104;7.150;2022-08-02T05:12:53;99078.25;;;14.64;100.00
4167;BME280;2097;51.104;7.150;2022-08-02T05:15:20;99014.69;;;14.27;100.00
4167;BME280;2097;51.104;7.150;2022-08-02T05:17:47;99129.84;;;14.97;100.00
4167;BME280;2097;51.104;7.150;2022-08-02T05:20:16;98950.66;;;13.97;100.00
4167;BME280;2097;51.104;7.150;2022-08-02T05:22:43;99132.13;;;15.14;100.00
4167;BME280;2097;51.104;7.150;2022-08-02T05:25:10;99090.75;;;14.96;100.00
4167;BME280;2097;51.104;7.150;2022-08-02T05:27:37;99010.53;;;14.61;100.00
4167;BME280;2097;51.104;7.150;2022-08-02T05:30:05;99140.44;;;15.44;100.00
4167;BME280;2097;51.104;7.150;2022-08-02T05:32:32;99136.31;;;15.53;100.00
4167;BME280;2097;51.104;7.150;2022-08-02T05:34:59;99123.63;;;15.59;100.00
4167;BME280;2097;51.104;7.150;2022-08-02T05:37:27;99127.44;;;15.66;100.00
4167;BME280;2097;51.104;7.150;2022-08-02T05:39:54;99125.25;;;15.73;100.00
4167;BME280;2097;51.104;7.150;2022-08-02T05:42:21;99044.78;;;15.29;100.00
4167;BME280;2097;51.104;7.150;2022-08-02T05:44:48;99050.88;;;15.41;100.00
4167;BME280;2097;51.104;7.150;2022-08-02T05:47:15;99129.28;;;16.00;100.00
4167;BME280;2097;51.104;7.150;2022-08-02T05:49:42;99133.72;;;16.10;100.00
4167;BME280;2097;51.104;7.150;2022-08-02T05:52:14;99131.03;;;16.23;100.00
4167;BME280;2097;51.104;7.150;2022-08-02T05:54:47;99129.19;;;16.36;100.00
4167;BME280;2097;51.104;7.150;2022-08-02T05:57:20;99131.94;;;16.45;100.00
4167;BME280;2097;51.104;7.150;2022-08-02T06:00:02;99100.59;;;16.33;100.00
4167;BME280;2097;51.104;7.150;2022-08-02T06:02:39;99044.06;;;15.96;100.00
4167;BME280;2097;51.104;7.150;2022-08-02T06:05:10;99145.47;;;16.74;100.00
4167;BME280;2097;51.104;7.150;2022-08-02T06:07:41;98990.50;;;15.89;100.00
4167;BME280;2097;51.104;7.150;2022-08-02T06:10:11;99140.81;;;16.88;100.00
4167;BME280;2097;51.104;7.150;2022-08-02T06:12:45;99045.06;;;16.28;100.00
4167;BME280;2097;51.104;7.150;2022-08-02T06:15:15;99141.50;;;17.01;100.00
4167;BME280;2097;51.104;7.150;2022-08-02T06:17:43;99141.88;;;17.08;100.00
4167;BME280;2097;51.104;7.150;2022-08-02T06:20:10;99148.06;;;17.17;100.00
4167;BME280;2097;51.104;7.150;2022-08-02T06:22:40;99142.94;;;17.27;100.00
4167;BME280;2097;51.104;7.150;2022-08-02T06:25:11;99118.84;;;17.22;100.00
4167;BME280;2097;51.104;7.150;2022-08-02T06:27:38;99042.72;;;16.80;100.00
4167;BME280;2097;51.104;7.150;2022-08-02T06:30:07;99067.00;;;17.04;100.00
4167;BME280;2097;51.104;7.150;2022-08-02T06:32:34;99038.19;;;16.93;100.00
4167;BME280;2097;51.104;7.150;2022-08-02T06:35:02;99004.34;;;16.79;100.00
4167;BME280;2097;51.104;7.150;2022-08-02T06:37:34;99100.34;;;17.45;100.00
4167;BME280;2097;51.104;7.150;2022-08-02T06:40:05;98999.09;;;16.90;100.00
4167;BME280;2097;51.104;7.150;2022-08-02T06:42:41;99149.03;;;17.81;100.00
4167;BME280;2097;51.104;7.150;2022-08-02T06:45:10;99145.91;;;17.87;100.00
4167;BME280;2097;51.104;7.150;2022-08-02T06:47:37;99042.88;;;17.31;100.00
4167;BME280;2097;51.104;7.150;2022-08-02T06:50:04;99077.88;;;17.52;100.00
4167;BME280;2097;51.104;7.150;2022-08-02T06:52:31;99132.59;;;17.99;100.00
4167;BME280;2097;51.104;7.150;2022-08-02T06:55:01;99145.19;;;18.16;100.00
4167;BME280;2097;51.104;7.150;2022-08-02T06:57:29;99005.88;;;17.45;99.78
4167;BME280;2097;51.104;7.150;2022-08-02T06:59:58;99148.69;;;18.37;99.62
4167;BME280;2097;51.104;7.150;2022-08-02T07:02:27;99142.69;;;18.46;99.11
4167;BME280;2097;51.104;7.150;2022-08-02T07:04:54;99144.66;;;18.53;98.63
4167;BME280;2097;51.104;7.150;2022-08-02T07:07:21;99149.41;;;18.59;98.51
4167;BME280;2097;51.104;7.150;2022-08-02T07:09:48;99150.66;;;18.65;98.05
4167;BME280;2097;51.104;7.150;2022-08-02T07:12:16;99187.38;;;18.66;97.38
4167;BME280;2097;51.104;7.150;2022-08-02T07:14:43;99150.84;;;18.73;96.85
4167;BME280;2097;51.104;7.150;2022-08-02T07:17:12;99076.47;;;18.32;96.15
4167;BME280;2097;51.104;7.150;2022-08-02T07:19:39;99142.44;;;18.79;95.89
4167;BME280;2097;51.104;7.150;2022-08-02T07:22:06;99154.38;;;18.83;95.55
4167;BME280;2097;51.104;7.150;2022-08-02T07:24:32;99148.00;;;18.85;95.17
4167;BME280;2097;51.104;7.150;2022-08-02T07:26:59;99154.28;;;18.94;94.95
4167;BME280;2097;51.104;7.150;2022-08-02T07:29:26;99136.84;;;18.93;94.44
4167;BME280;2097;51.104;7.150;2022-08-02T07:31:53;99145.63;;;19.12;94.19
4167;BME280;2097;51.104;7.150;2022-08-02T07:34:21;99142.94;;;19.23;93.92
4167;BME280;2097;51.104;7.150;2022-08-02T07:36:47;98978.63;;;18.28;93.14
4167;BME280;2097;51.104;7.150;2022-08-02T07:39:14;99150.91;;;19.42;92.80
4167;BME280;2097;51.104;7.150;2022-08-02T07:41:41;99146.47;;;19.52;92.59
4167;BME280;2097;51.104;7.150;2022-08-02T07:44:10;99151.09;;;19.59;91.55
4167;BME280;2097;51.104;7.150;2022-08-02T07:46:37;99142.66;;;19.65;90.00
4167;BME280;2097;51.104;7.150;2022-08-02T07:49:04;99145.28;;;19.75;89.70
4167;BME280;2097;51.104;7.150;2022-08-02T07:51:33;99104.66;;;19.58;88.80
4167;BME280;2097;51.104;7.150;2022-08-02T07:54:01;99068.75;;;19.48;86.81
4167;BME280;2097;51.104;7.150;2022-08-02T07:56:28;99148.53;;;20.07;85.98
4167;BME280;2097;51.104;7.150;2022-08-02T07:58:55;99142.16;;;20.19;85.68
4167;BME280;2097;51.104;7.150;2022-08-02T08:01:21;99151.72;;;20.29;85.43
4167;BME280;2097;51.104;7.150;2022-08-02T08:03:48;99152.13;;;20.34;84.17
4167;BME280;2097;51.104;7.150;2022-08-02T08:06:15;99154.75;;;20.44;83.75
4167;BME280;2097;51.104;7.150;2022-08-02T08:08:43;99142.66;;;20.51;83.25
4167;BME280;2097;51.104;7.150;2022-08-02T08:11:10;99146.25;;;20.59;82.06
4167;BME280;2097;51.104;7.150;2022-08-02T08:13:37;99147.06;;;20.69;81.76
4167;BME280;2097;51.104;7.150;2022-08-02T08:16:04;99143.56;;;20.78;81.05
4167;BME280;2097;51.104;7.150;2022-08-02T08:18:31;99148.28;;;20.93;80.36
4167;BME280;2097;51.104;7.150;2022-08-02T08:20:58;99138.38;;;21.05;79.85
4167;BME280;2097;51.104;7.150;2022-08-02T08:23:25;99141.78;;;21.15;77.88
4167;BME280;2097;51.104;7.150;2022-08-02T08:25:53;99145.38;;;21.23;75.68
4167;BME280;2097;51.104;7.150;2022-08-02T08:28:19;99142.97;;;21.30;74.47
4167;BME280;2097;51.104;7.150;2022-08-02T08:30:46;99149.06;;;21.40;73.84
4167;BME280;2097;51.104;7.150;2022-08-02T08:33:13;99146.75;;;21.54;72.77
4167;BME280;2097;51.104;7.150;2022-08-02T08:35:40;99144.06;;;21.64;71.89
4167;BME280;2097;51.104;7.150;2022-08-02T08:38:07;99135.25;;;21.73;70.88
4167;BME280;2097;51.104;7.150;2022-08-02T08:40:34;99137.69;;;21.84;70.13
4167;BME280;2097;51.104;7.150;2022-08-02T08:43:03;99116.22;;;21.87;69.12
4167;BME280;2097;51.104;7.150;2022-08-02T08:45:29;99109.91;;;21.97;68.65
4167;BME280;2097;51.104;7.150;2022-08-02T08:48:00;99133.41;;;22.25;67.88
4167;BME280;2097;51.104;7.150;2022-08-02T08:50:30;99131.94;;;22.40;67.60
4167;BME280;2097;51.104;7.150;2022-08-02T08:53:02;99130.72;;;22.52;66.04
4167;BME280;2097;51.104;7.150;2022-08-02T08:55:31;99129.69;;;22.71;66.06
4167;BME280;2097;51.104;7.150;2022-08-02T08:57:59;99121.25;;;22.75;65.61
4167;BME280;2097;51.104;7.150;2022-08-02T09:00:29;99131.31;;;22.97;65.02
4167;BME280;2097;51.104;7.150;2022-08-02T09:02:56;99128.66;;;22.97;64.98
4167;BME280;2097;51.104;7.150;2022-08-02T09:05:23;99129.31;;;22.91;65.05
4167;BME280;2097;51.104;7.150;2022-08-02T09:07:51;99123.03;;;23.00;65.13
4167;BME280;2097;51.104;7.150;2022-08-02T09:10:32;99051.03;;;22.63;65.00
4167;BME280;2097;51.104;7.150;2022-08-02T09:13:06;99132.16;;;23.23;65.13
4167;BME280;2097;51.104;7.150;2022-08-02T09:15:34;99126.84;;;23.31;64.67
4167;BME280;2097;51.104;7.150;2022-08-02T09:18:02;99115.63;;;23.37;64.43
4167;BME280;2097;51.104;7.150;2022-08-02T09:20:29;99119.69;;;23.57;64.58
4167;BME280;2097;51.104;7.150;2022-08-02T09:23:07;99122.00;;;23.60;64.26
4167;BME280;2097;51.104;7.150;2022-08-02T09:25:34;99119.56;;;23.74;64.12
4167;BME280;2097;51.104;7.150;2022-08-02T09:28:03;99115.47;;;23.88;64.17
4167;BME280;2097;51.104;7.150;2022-08-02T09:30:30;99113.97;;;24.01;63.76
4167;BME280;2097;51.104;7.150;2022-08-02T09:32:59;99120.78;;;24.12;63.21
4167;BME280;2097;51.104;7.150;2022-08-02T09:35:33;99122.09;;;24.16;62.85
4167;BME280;2097;51.104;7.150;2022-08-02T09:38:11;99118.47;;;24.17;62.88
4167;BME280;2097;51.104;7.150;2022-08-02T09:40:39;99114.66;;;24.19;62.67
4167;BME280;2097;51.104;7.150;2022-08-02T09:43:06;99119.63;;;24.30;62.64
4167;BME280;2097;51.104;7.150;2022-08-02T09:45:35;99121.09;;;24.40;62.31
4167;BME280;2097;51.104;7.150;2022-08-02T09:48:05;99123.47;;;24.51;62.19
4167;BME280;2097;51.104;7.150;2022-08-02T09:50:32;99111.84;;;24.60;61.88
4167;BME280;2097;51.104;7.150;2022-08-02T09:52:59;99119.47;;;24.71;61.26
4167;BME280;2097;51.104;7.150;2022-08-02T09:55:30;99123.63;;;24.58;61.45
4167;BME280;2097;51.104;7.150;2022-08-02T09:57:57;99127.09;;;24.50;61.31
4167;BME280;2097;51.104;7.150;2022-08-02T10:00:24;99117.78;;;24.46;61.24
4167;BME280;2097;51.104;7.150;2022-08-02T10:03:09;99115.81;;;24.72;61.30
4167;BME280;2097;51.104;7.150;2022-08-02T10:05:50;99037.69;;;24.51;60.53
4167;BME280;2097;51.104;7.150;2022-08-02T10:08:18;99123.00;;;25.18;60.11
4167;BME280;2097;51.104;7.150;2022-08-02T10:10:45;99094.59;;;25.19;59.73
4167;BME280;2097;51.104;7.150;2022-08-02T10:13:12;99006.28;;;24.70;59.12
4167;BME280;2097;51.104;7.150;2022-08-02T10:15:39;99113.06;;;25.50;59.19
4167;BME280;2097;51.104;7.150;2022-08-02T10:18:08;99096.19;;;25.66;58.87
4167;BME280;2097;51.104;7.150;2022-08-02T10:20:39;99102.50;;;25.95;58.81
4167;BME280;2097;51.104;7.150;2022-08-02T10:23:10;99103.81;;;26.22;57.82
4167;BME280;2097;51.104;7.150;2022-08-02T10:25:39;99101.34;;;26.35;56.66
4167;BME280;2097;51.104;7.150;2022-08-02T10:28:07;99099.75;;;26.48;56.75
4167;BME280;2097;51.104;7.150;2022-08-02T10:30:37;99097.63;;;26.44;56.62
4167;BME280;2097;51.104;7.150;2022-08-02T10:33:08;99093.72;;;26.32;56.48
4167;BME280;2097;51.104;7.150;2022-08-02T10:35:38;99092.56;;;26.12;56.70
4167;BME280;2097;51.104;7.150;2022-08-02T10:38:08;98972.72;;;25.38;57.35
4167;BME280;2097;51.104;7.150;2022-08-02T10:40:46;99087.88;;;26.14;57.12
4167;BME280;2097;51.104;7.150;2022-08-02T10:43:39;99079.00;;;26.21;57.40
4167;BME280;2097;51.104;7.150;2022-08-02T10:46:37;99095.56;;;26.09;57.62
4167;BME280;2097;51.104;7.150;2022-08-02T10:49:11;99089.97;;;26.04;57.26
4167;BME280;2097;51.104;7.150;2022-08-02T10:52:09;99089.97;;;26.04;57.14
4167;BME280;2097;51.104;7.150;2022-08-02T10:54:37;99094.28;;;26.05;57.31
4167;BME280;2097;51.104;7.150;2022-08-02T10:57:14;99034.53;;;25.62;57.25
4167;BME280;2097;51.104;7.150;2022-08-02T10:59:42;99087.69;;;25.93;57.46
4167;BME280;2097;51.104;7.150;2022-08-02T11:02:11;99091.00;;;25.95;57.33
4167;BME280;2097;51.104;7.150;2022-08-02T11:05:00;99080.88;;;25.98;56.98
4167;BME280;2097;51.104;7.150;2022-08-02T11:07:31;99082.50;;;26.22;56.96
4167;BME280;2097;51.104;7.150;2022-08-02T11:09:58;99069.00;;;26.46;56.29
4167;BME280;2097;51.104;7.150;2022-08-02T11:12:25;99073.41;;;26.67;55.59
4167;BME280;2097;51.104;7.150;2022-08-02T11:14:57;99059.72;;;26.70;54.99
4167;BME280;2097;51.104;7.150;2022-08-02T11:17:26;99070.00;;;27.02;55.01
4167;BME280;2097;51.104;7.150;2022-08-02T11:20:13;99069.59;;;27.13;54.13
4167;BME280;2097;51.104;7.150;2022-08-02T11:22:44;99075.13;;;27.12;54.67
4167;BME280;2097;51.104;7.150;2022-08-02T11:25:30;99073.06;;;27.28;53.89
4167;BME280;2097;51.104;7.150;2022-08-02T11:28:06;99003.94;;;27.12;53.10
4167;BME280;2097;51.104;7.150;2022-08-02T11:30:33;99069.94;;;27.60;52.78
4167;BME280;2097;51.104;7.150;2022-08-02T11:33:02;99073.91;;;27.64;52.28
4167;BME280;2097;51.104;7.150;2022-08-02T11:35:33;99070.97;;;27.59;52.45
4167;BME280;2097;51.104;7.150;2022-08-02T11:38:15;99048.34;;;27.55;51.86
4167;BME280;2097;51.104;7.150;2022-08-02T11:40:43;99060.34;;;28.01;52.05
4167;BME280;2097;51.104;7.150;2022-08-02T11:43:21;99055.25;;;28.27;50.91
4167;BME280;2097;51.104;7.150;2022-08-02T11:45:50;98948.25;;;27.80;49.95
4167;BME280;2097;51.104;7.150;2022-08-02T11:48:32;99062.78;;;28.72;49.58
4167;BME280;2097;51.104;7.150;2022-08-02T11:51:04;99060.78;;;28.80;49.36
4167;BME280;2097;51.104;7.150;2022-08-02T11:53:39;99065.59;;;28.91;48.86
4167;BME280;2097;51.104;7.150;2022-08-02T11:56:07;99052.75;;;29.14;48.33
4167;BME280;2097;51.104;7.150;2022-08-02T11:58:34;99069.56;;;29.42;47.36
4167;BME280;2097;51.104;7.150;2022-08-02T12:01:00;99060.09;;;29.46;47.71
4167;BME280;2097;51.104;7.150;2022-08-02T12:03:34;99057.88;;;29.62;46.95
4167;BME280;2097;51.104;7.150;2022-08-02T12:06:01;99056.25;;;29.61;46.69
4167;BME280;2097;51.104;7.150;2022-08-02T12:08:29;99062.03;;;29.71;47.08
4167;BME280;2097;51.104;7.150;2022-08-02T12:10:56;99056.28;;;29.74;46.66
4167;BME280;2097;51.104;7.150;2022-08-02T12:13:26;99050.75;;;29.82;46.30
4167;BME280;2097;51.104;7.150;2022-08-02T12:15:52;99050.31;;;29.72;46.18
4167;BME280;2097;51.104;7.150;2022-08-02T12:18:47;99061.38;;;29.56;46.53
4167;BME280;2097;51.104;7.150;2022-08-02T12:21:31;99058.09;;;29.61;46.21
4167;BME280;2097;51.104;7.150;2022-08-02T12:23:58;99055.44;;;29.74;46.08
4167;BME280;2097;51.104;7.150;2022-08-02T12:26:24;99052.97;;;29.79;45.90
4167;BME280;2097;51.104;7.150;2022-08-02T12:28:54;99058.28;;;29.53;45.58
4167;BME280;2097;51.104;7.150;2022-08-02T12:31:37;99066.06;;;29.41;46.02
4167;BME280;2097;51.104;7.150;2022-08-02T12:34:13;99061.16;;;29.51;45.42
4167;BME280;2097;51.104;7.150;2022-08-02T12:36:42;99033.19;;;29.54;45.59
4167;BME280;2097;51.104;7.150;2022-08-02T12:39:11;99051.91;;;29.54;45.69
4167;BME280;2097;51.104;7.150;2022-08-02T12:41:39;99018.06;;;29.40;45.57
4167;BME280;2097;51.104;7.150;2022-08-02T12:44:14;99052.13;;;29.59;45.03
4167;BME280;2097;51.104;7.150;2022-08-02T12:46:42;99048.44;;;29.60;45.34
4167;BME280;2097;51.104;7.150;2022-08-02T12:49:17;99053.16;;;29.64;45.23
4167;BME280;2097;51.104;7.150;2022-08-02T12:51:44;99050.47;;;29.64;45.58
4167;BME280;2097;51.104;7.150;2022-08-02T12:54:15;99051.34;;;29.71;45.24
4167;BME280;2097;51.104;7.150;2022-08-02T12:56:42;99037.13;;;29.84;44.91
4167;BME280;2097;51.104;7.150;2022-08-02T12:59:09;99052.00;;;30.06;44.53
4167;BME280;2097;51.104;7.150;2022-08-02T13:01:36;99044.63;;;30.21;44.62
4167;BME280;2097;51.104;7.150;2022-08-02T13:04:03;99039.66;;;30.24;44.44
4167;BME280;2097;51.104;7.150;2022-08-02T13:06:32;99036.97;;;30.18;43.96
4167;BME280;2097;51.104;7.150;2022-08-02T13:08:59;99035.16;;;30.18;44.28
4167;BME280;2097;51.104;7.150;2022-08-02T13:11:27;99037.19;;;30.29;44.07
4167;BME280;2097;51.104;7.150;2022-08-02T13:13:54;99020.91;;;30.18;43.65
4167;BME280;2097;51.104;7.150;2022-08-02T13:16:21;99042.75;;;30.34;43.49
4167;BME280;2097;51.104;7.150;2022-08-02T13:18:48;99033.25;;;30.51;44.10
4167;BME280;2097;51.104;7.150;2022-08-02T13:21:15;99026.63;;;30.86;42.80
4167;BME280;2097;51.104;7.150;2022-08-02T13:23:43;99039.13;;;31.18;42.46
4167;BME280;2097;51.104;7.150;2022-08-02T13:26:10;99031.06;;;31.18;42.38
4167;BME280;2097;51.104;7.150;2022-08-02T13:28:37;98993.41;;;30.87;42.27
4167;BME280;2097;51.104;7.150;2022-08-02T13:31:07;99035.47;;;30.93;42.04
4167;BME280;2097;51.104;7.150;2022-08-02T13:33:33;99031.81;;;30.68;42.34